Time;durP1;ratioP1;P1;durP2;ratioP2;P2;SDS_P1;SDS_P2;PMS_P1;PMS_P2;Temp;Humidity;BMP_temperature;BMP_pressure;BME280_temperature;BME280_humidity;BME280_pressure;Samples;Min_cycle;Max_cycle;Signal;HPM_P1;HPM_P2
2023/11/12 00:01:44;;;;;;;13.68;6.68;;;;;;;6.19;100.00;100375.16;5068611;28;20045;-49
2023/11/12 00:04:14;;;;;;;11.93;7.20;;;;;;;6.18;100.00;100370.88;5068641;28;20057;-47
2023/11/12 00:06:42;;;;;;;11.75;7.57;;;;;;;6.21;100.00;100370.69;5069311;28;20056;-47
2023/11/12 00:09:11;;;;;;;13.68;7.47;;;;;;;6.23;100.00;100378.44;5068465;28;20040;-50
2023/11/12 00:11:39;;;;;;;12.23;7.53;;;;;;;6.22;100.00;100375.00;5068805;28;20492;-51
2023/11/12 00:14:07;;;;;;;9.77;6.85;;;;;;;6.22;100.00;100377.59;5068809;28;20044;-51
2023/11/12 00:16:36;;;;;;;15.60;7.63;;;;;;;6.21;100.00;100378.53;5070622;28;20044;-46
2023/11/12 00:19:04;;;;;;;14.15;7.28;;;;;;;6.22;100.00;100366.34;5070880;28;20423;-47
2023/11/12 00:21:34;;;;;;;14.23;7.93;;;;;;;6.21;100.00;100370.69;5071835;28;20049;-47
2023/11/12 00:24:02;;;;;;;12.88;8.20;;;;;;;6.21;100.00;100364.63;5067999;28;20119;-48
2023/11/12 00:26:31;;;;;;;13.90;7.90;;;;;;;6.20;100.00;100373.38;5055096;28;20714;-47
2023/11/12 00:29:00;;;;;;;11.73;7.45;;;;;;;6.19;100.00;100369.94;5058896;28;20047;-48
2023/11/12 00:31:28;;;;;;;13.60;7.82;;;;;;;6.18;100.00;100365.66;5059433;28;20044;-46
2023/11/12 00:33:58;;;;;;;12.52;7.35;;;;;;;6.20;100.00;100378.63;5063219;28;21761;-48
2023/11/12 00:36:30;;;;;;;11.95;7.53;;;;;;;6.18;100.00;100375.25;5056798;28;20052;-49
2023/11/12 00:39:00;;;;;;;11.85;6.93;;;;;;;6.19;100.00;100369.94;5060878;28;20053;-50
2023/11/12 00:41:28;;;;;;;14.00;7.93;;;;;;;6.19;100.00;100372.56;5067361;28;20053;-49
2023/11/12 00:43:57;;;;;;;14.48;7.72;;;;;;;6.17;100.00;100368.34;5059769;28;20044;-48
2023/11/12 00:46:26;;;;;;;12.82;8.02;;;;;;;6.17;100.00;100352.69;5071141;28;20185;-50
2023/11/12 00:48:55;;;;;;;12.95;8.38;;;;;;;6.19;100.00;100351.66;5068398;28;20645;-48
2023/11/12 00:51:23;;;;;;;11.35;7.65;;;;;;;6.16;100.00;100354.47;5069154;28;20044;-47
2023/11/12 00:53:51;;;;;;;13.95;8.30;;;;;;;6.14;100.00;100358.06;5071968;28;20522;-57
2023/11/12 00:56:20;;;;;;;14.15;7.90;;;;;;;6.12;100.00;100352.91;5069472;28;20064;-57
2023/11/12 00:58:49;;;;;;;15.27;8.45;;;;;;;6.09;100.00;100350.47;5069202;28;20052;-57
2023/11/12 01:01:20;;;;;;;13.80;8.80;;;;;;;6.05;100.00;100354.19;5069669;28;20047;-57
2023/11/12 01:03:48;;;;;;;13.35;8.68;;;;;;;6.02;100.00;100355.19;5075001;28;20056;-56
2023/11/12 01:06:17;;;;;;;11.45;7.75;;;;;;;5.99;100.00;100349.31;5074244;28;20048;-54
2023/11/12 01:08:45;;;;;;;15.80;8.43;;;;;;;5.95;100.00;100363.41;5068983;28;20049;-56
2023/11/12 01:11:14;;;;;;;14.73;8.55;;;;;;;5.87;100.00;100362.03;5052439;28;20095;-57
2023/11/12 01:13:43;;;;;;;11.93;8.60;;;;;;;5.84;100.00;100362.19;5056088;28;20049;-57
2023/11/12 01:16:12;;;;;;;14.02;8.85;;;;;;;5.83;100.00;100359.69;5065566;28;20045;-55
2023/11/12 01:18:41;;;;;;;11.88;8.07;;;;;;;5.80;100.00;100358.06;5073203;28;20048;-57
2023/11/12 01:21:10;;;;;;;14.05;8.63;;;;;;;5.78;100.00;100361.69;5073082;28;20403;-56
2023/11/12 01:23:38;;;;;;;12.57;8.30;;;;;;;5.73;100.00;100356.72;5075304;28;20475;-58
2023/11/12 01:26:07;;;;;;;13.18;8.30;;;;;;;5.69;100.00;100357.81;5071064;28;20041;-56
2023/11/12 01:28:35;;;;;;;13.32;9.30;;;;;;;5.65;100.00;100353.66;5073442;28;20106;-57
2023/11/12 01:31:05;;;;;;;13.95;8.45;;;;;;;5.63;100.00;100352.88;5073278;28;20809;-56
2023/11/12 01:33:34;;;;;;;11.00;8.02;;;;;;;5.54;100.00;100351.63;5074712;28;20521;-58
2023/11/12 01:36:03;;;;;;;15.45;9.38;;;;;;;5.51;100.00;100351.78;5073938;28;20052;-58
2023/11/12 01:38:31;;;;;;;15.55;9.15;;;;;;;5.44;100.00;100353.00;5073371;28;20364;-57
2023/11/12 01:41:03;;;;;;;14.48;8.63;;;;;;;5.40;100.00;100355.78;5090141;28;20495;-56
2023/11/12 01:43:31;;;;;;;13.43;8.45;;;;;;;5.36;100.00;100343.81;5093132;28;20051;-56
2023/11/12 01:46:01;;;;;;;12.73;8.30;;;;;;;5.29;100.00;100349.41;5092884;28;20082;-56
2023/11/12 01:48:31;;;;;;;12.20;8.32;;;;;;;5.22;100.00;100347.13;5091546;28;20060;-55
2023/11/12 01:51:04;;;;;;;13.32;8.38;;;;;;;5.16;100.00;100350.03;5093247;28;20106;-56
2023/11/12 01:53:35;;;;;;;15.60;8.32;;;;;;;5.16;100.00;100351.81;5093784;28;20419;-47
2023/11/12 01:56:08;;;;;;;11.20;7.30;;;;;;;5.08;100.00;100342.63;5071137;28;20122;-47
2023/11/12 01:58:38;;;;;;;11.63;7.97;;;;;;;5.06;100.00;100348.81;5071385;28;20047;-47
2023/11/12 02:01:06;;;;;;;11.35;7.82;;;;;;;5.02;100.00;100347.28;5060197;28;20040;-48
2023/11/12 02:03:37;;;;;;;12.10;8.27;;;;;;;4.98;100.00;100350.97;5058016;28;20068;-50
2023/11/12 02:06:06;;;;;;;14.35;8.52;;;;;;;4.92;100.00;100341.66;5053199;28;20045;-49
2023/11/12 02:08:36;;;;;;;12.05;8.63;;;;;;;4.90;100.00;100344.34;5063852;28;20058;-49
2023/11/12 02:11:07;;;;;;;12.85;8.38;;;;;;;4.89;100.00;100340.09;5054135;28;20057;-48
2023/11/12 02:13:36;;;;;;;13.05;8.27;;;;;;;4.85;100.00;100337.69;5064317;28;20045;-47
2023/11/12 02:16:06;;;;;;;13.93;8.45;;;;;;;4.84;100.00;100346.41;5057406;28;20562;-48
2023/11/12 02:18:36;;;;;;;11.95;8.38;;;;;;;4.81;100.00;100352.63;5053315;28;20049;-50
2023/11/12 02:21:04;;;;;;;11.30;8.82;;;;;;;4.78;100.00;100347.56;5065960;28;20037;-49
2023/11/12 02:23:38;;;;;;;12.73;7.97;;;;;;;4.77;100.00;100350.25;5066848;28;20407;-51
2023/11/12 02:26:07;;;;;;;15.77;9.65;;;;;;;4.73;100.00;100342.59;5061959;28;20041;-46
2023/11/12 02:28:35;;;;;;;13.73;9.10;;;;;;;4.77;100.00;100345.88;5053745;28;20115;-46
2023/11/12 02:31:04;;;;;;;16.40;9.88;;;;;;;4.76;100.00;100345.94;5058847;28;20083;-46
2023/11/12 02:33:32;;;;;;;16.13;10.25;;;;;;;4.70;100.00;100347.09;5065589;28;20519;-46
2023/11/12 02:36:00;;;;;;;13.68;9.00;;;;;;;4.69;100.00;100345.41;5070875;28;20353;-48
2023/11/12 02:38:31;;;;;;;14.85;10.23;;;;;;;4.69;100.00;100343.66;5060572;28;20120;-50
2023/11/12 02:41:01;;;;;;;12.38;9.00;;;;;;;4.69;100.00;100345.41;5059462;28;20060;-50
2023/11/12 02:43:30;;;;;;;14.60;9.52;;;;;;;4.70;100.00;100349.69;5055174;28;20436;-49
2023/11/12 02:45:58;;;;;;;13.32;10.02;;;;;;;4.69;100.00;100350.59;5061703;28;20072;-49
2023/11/12 02:48:35;;;;;;;14.40;10.50;;;;;;;4.70;100.00;100350.56;5059236;28;20079;-47
2023/11/12 02:51:07;;;;;;;13.07;10.25;;;;;;;4.70;100.00;100350.56;5061006;28;20045;-47
2023/11/12 02:53:35;;;;;;;14.77;10.15;;;;;;;4.70;100.00;100347.97;5050780;28;20557;-46
2023/11/12 02:56:06;;;;;;;19.13;11.43;;;;;;;4.74;100.00;100348.63;5054066;28;20123;-47
2023/11/12 02:58:35;;;;;;;13.95;10.68;;;;;;;4.74;100.00;100343.41;5060845;28;20063;-50
2023/11/12 03:01:03;;;;;;;19.33;10.88;;;;;;;4.76;100.00;100340.75;5063086;28;20037;-47
2023/11/12 03:03:32;;;;;;;15.75;11.60;;;;;;;4.77;100.00;100343.25;5064777;28;20045;-48
2023/11/12 03:06:00;;;;;;;17.10;12.32;;;;;;;4.78;100.00;100346.72;5070125;28;20681;-47
2023/11/12 03:08:29;;;;;;;20.67;13.23;;;;;;;4.78;100.00;100342.34;5059494;28;20527;-50
2023/11/12 03:10:57;;;;;;;16.60;12.15;;;;;;;4.80;100.00;100347.47;5058363;28;20162;-49
2023/11/12 03:13:26;;;;;;;17.63;12.52;;;;;;;4.80;100.00;100352.69;5057443;28;20076;-47
2023/11/12 03:15:55;;;;;;;18.27;13.90;;;;;;;4.80;100.00;100350.09;5066772;28;20044;-46
2023/11/12 03:18:23;;;;;;;20.33;13.55;;;;;;;4.84;100.00;100349.03;5054142;28;20044;-49
2023/11/12 03:20:51;;;;;;;17.70;13.40;;;;;;;4.84;100.00;100354.22;5062051;28;20085;-48
2023/11/12 03:23:19;;;;;;;19.10;13.45;;;;;;;4.84;100.00;100349.03;5065951;28;20045;-49
2023/11/12 03:25:48;;;;;;;22.95;14.55;;;;;;;4.83;100.00;100348.19;5055144;28;20044;-51
2023/11/12 03:28:16;;;;;;;21.95;15.05;;;;;;;4.84;100.00;100346.41;5054066;28;20492;-51
2023/11/12 03:30:45;;;;;;;22.45;14.73;;;;;;;4.84;100.00;100344.66;5052789;28;20052;-46
2023/11/12 03:33:17;;;;;;;22.15;16.00;;;;;;;4.85;100.00;100340.28;5051186;28;20124;-50
2023/11/12 03:35:45;;;;;;;23.88;15.85;;;;;;;4.85;100.00;100342.91;5065660;28;20044;-50
2023/11/12 03:38:14;;;;;;;20.05;14.82;;;;;;;4.83;100.00;100334.31;5063242;28;20040;-49
2023/11/12 03:40:42;;;;;;;21.25;15.77;;;;;;;4.84;100.00;100336.00;5051917;28;20442;-49
2023/11/12 03:43:10;;;;;;;23.00;16.17;;;;;;;4.82;100.00;100333.47;5052588;28;20056;-47
2023/11/12 03:45:38;;;;;;;20.13;15.80;;;;;;;4.82;100.00;100330.84;5066079;28;20119;-52
2023/11/12 03:48:10;;;;;;;24.25;15.93;;;;;;;4.83;100.00;100336.94;5048487;28;20886;-50
2023/11/12 03:50:38;;;;;;;24.48;16.60;;;;;;;4.82;100.00;100338.69;5047076;28;20573;-49
2023/11/12 03:53:06;;;;;;;23.27;17.10;;;;;;;4.88;100.00;100348.81;5049165;28;20048;-49
2023/11/12 03:55:34;;;;;;;25.30;17.92;;;;;;;4.87;100.00;100344.50;5052679;28;20103;-46
2023/11/12 03:58:02;;;;;;;25.38;18.23;;;;;;;4.89;100.00;100347.03;5064839;28;20507;-47
2023/11/12 04:00:31;;;;;;;25.20;19.08;;;;;;;4.89;100.00;100347.91;5049964;28;20071;-46
2023/11/12 04:02:59;;;;;;;27.45;19.52;;;;;;;4.90;100.00;100339.13;5052000;28;20068;-46
2023/11/12 04:05:29;;;;;;;28.30;19.63;;;;;;;4.95;100.00;100338.94;5057676;28;20048;-47
2023/11/12 04:07:57;;;;;;;28.77;19.90;;;;;;;4.94;100.00;100344.22;5069409;28;20044;-47
2023/11/12 04:10:25;;;;;;;28.10;20.00;;;;;;;4.96;100.00;100334.56;5067828;28;20438;-47
2023/11/12 04:12:53;;;;;;;27.17;19.75;;;;;;;4.97;100.00;100333.63;5069475;28;20032;-49
2023/11/12 04:15:21;;;;;;;31.25;20.30;;;;;;;4.96;100.00;100331.94;5072358;28;20075;-48
2023/11/12 04:17:50;;;;;;;29.83;20.05;;;;;;;4.95;100.00;100328.50;5065147;28;20037;-48
2023/11/12 04:20:18;;;;;;;25.58;19.40;;;;;;;4.98;100.00;100322.31;5057281;28;20066;-44
2023/11/12 04:22:50;;;;;;;26.10;20.02;;;;;;;4.99;100.00;100317.00;5062212;28;20126;-48
2023/11/12 04:25:21;;;;;;;27.15;19.30;;;;;;;5.02;100.00;100326.44;5051611;28;20045;-49
2023/11/12 04:27:50;;;;;;;26.77;19.33;;;;;;;5.02;100.00;100323.84;5064372;28;20047;-49
2023/11/12 04:30:18;;;;;;;24.63;18.52;;;;;;;5.02;100.00;100322.06;5053313;28;20044;-47
2023/11/12 04:32:49;;;;;;;28.85;19.52;;;;;;;5.01;100.00;100319.53;5051730;28;20037;-48
2023/11/12 04:35:19;;;;;;;27.67;19.25;;;;;;;4.99;100.00;100322.22;5066565;28;20132;-49
2023/11/12 04:37:47;;;;;;;27.55;19.00;;;;;;;4.99;100.00;100327.44;5064428;28;20052;-49
2023/11/12 04:40:17;;;;;;;28.85;19.05;;;;;;;5.00;100.00;100329.09;5049007;28;20099;-46
2023/11/12 04:42:46;;;;;;;27.92;18.67;;;;;;;5.00;100.00;100333.47;5050759;28;20053;-46
2023/11/12 04:45:17;;;;;;;27.02;19.10;;;;;;;4.98;100.00;100333.56;5055322;28;20443;-46
2023/11/12 04:47:46;;;;;;;26.45;18.60;;;;;;;5.00;100.00;100338.69;5075049;28;20416;-47
2023/11/12 04:50:17;;;;;;;24.73;18.55;;;;;;;4.99;100.00;100340.47;5052893;28;20041;-47
2023/11/12 04:52:46;;;;;;;24.40;17.88;;;;;;;5.00;100.00;100341.28;5063188;28;20439;-49
2023/11/12 04:55:19;;;;;;;27.27;19.02;;;;;;;5.02;100.00;100347.28;5051785;28;20456;-50
2023/11/12 04:57:47;;;;;;;26.90;18.83;;;;;;;5.02;100.00;100342.91;5057525;28;20044;-48
2023/11/12 05:00:16;;;;;;;23.38;17.27;;;;;;;5.01;100.00;100351.63;5066868;28;20048;-47
2023/11/12 05:02:44;;;;;;;25.80;18.90;;;;;;;5.04;100.00;100348.88;5055044;28;20043;-50
2023/11/12 05:05:13;;;;;;;25.02;17.73;;;;;;;5.05;100.00;100352.34;5054110;28;20431;-49
2023/11/12 05:07:41;;;;;;;22.52;17.85;;;;;;;5.07;100.00;100343.53;5070224;28;20052;-48
2023/11/12 05:10:11;;;;;;;24.83;18.55;;;;;;;5.07;100.00;100358.31;5067695;28;20126;-46
2023/11/12 05:12:40;;;;;;;25.30;18.83;;;;;;;5.10;100.00;100347.75;5068187;28;20048;-48
2023/11/12 05:15:09;;;;;;;27.67;18.77;;;;;;;5.10;100.00;100352.09;5066973;28;20077;-49
2023/11/12 05:17:38;;;;;;;29.52;19.45;;;;;;;5.08;100.00;100347.84;5063412;28;20079;-49
2023/11/12 05:20:07;;;;;;;28.35;19.48;;;;;;;5.10;100.00;100354.72;5052477;28;20069;-46
2023/11/12 05:22:38;;;;;;;29.17;19.85;;;;;;;5.11;100.00;100353.78;5048494;28;20059;-47
2023/11/12 05:25:09;;;;;;;26.42;19.30;;;;;;;5.11;100.00;100357.22;5063089;28;20044;-46
2023/11/12 05:27:37;;;;;;;28.13;19.70;;;;;;;5.09;100.00;100359.09;5057278;28;20049;-48
2023/11/12 05:30:08;;;;;;;27.15;20.15;;;;;;;5.09;100.00;100361.69;5065424;28;20040;-47
2023/11/12 05:32:37;;;;;;;28.77;20.02;;;;;;;5.11;100.00;100354.63;5053734;28;20129;-49
2023/11/12 05:35:05;;;;;;;29.13;20.48;;;;;;;5.08;100.00;100353.03;5054202;28;20110;-47
2023/11/12 05:37:34;;;;;;;32.08;19.15;;;;;;;5.09;100.00;100364.31;5054294;28;20053;-48
2023/11/12 05:40:02;;;;;;;25.20;18.90;;;;;;;5.08;100.00;100363.47;5049525;28;20051;-47
2023/11/12 05:42:30;;;;;;;27.85;20.50;;;;;;;5.08;100.00;100373.03;5050887;28;20517;-46
2023/11/12 05:44:58;;;;;;;26.23;19.35;;;;;;;5.08;100.00;100367.81;5062112;28;20045;-50
2023/11/12 05:47:30;;;;;;;30.23;20.15;;;;;;;5.07;100.00;100371.34;5052432;28;20121;-49
2023/11/12 05:49:59;;;;;;;28.20;19.25;;;;;;;5.07;100.00;100380.03;5057059;28;20044;-46
2023/11/12 05:52:27;;;;;;;26.55;19.40;;;;;;;5.06;100.00;100377.50;5063883;28;20052;-45
2023/11/12 05:54:55;;;;;;;26.70;18.85;;;;;;;5.10;100.00;100380.78;5067731;28;20051;-49
2023/11/12 05:57:23;;;;;;;31.33;18.65;;;;;;;5.10;100.00;100388.59;5071088;28;20543;-50
2023/11/12 05:59:51;;;;;;;25.25;19.02;;;;;;;5.10;100.00;100383.38;5063240;28;20148;-46
2023/11/12 06:02:19;;;;;;;25.08;17.92;;;;;;;5.11;100.00;100382.47;5059130;28;20529;-48
2023/11/12 06:04:49;;;;;;;27.58;18.85;;;;;;;5.11;100.00;100380.69;5069525;28;20393;-49
2023/11/12 06:07:17;;;;;;;26.65;18.52;;;;;;;5.12;100.00;100374.56;5061991;28;20036;-48
2023/11/12 06:09:46;;;;;;;25.73;18.00;;;;;;;5.13;100.00;100389.28;5058002;28;20048;-48
2023/11/12 06:12:15;;;;;;;24.40;18.15;;;;;;;5.13;100.00;100386.69;5070162;28;20052;-45
2023/11/12 06:14:43;;;;;;;24.08;17.13;;;;;;;5.13;100.00;100388.47;5071090;28;20072;-46
2023/11/12 06:17:16;;;;;;;23.23;16.95;;;;;;;5.12;100.00;100390.22;5070586;28;20450;-46
2023/11/12 06:19:44;;;;;;;24.67;17.73;;;;;;;5.12;100.00;100392.81;5073886;28;20049;-50
2023/11/12 06:22:13;;;;;;;22.27;16.77;;;;;;;5.10;100.00;100389.47;5067589;28;20071;-45
2023/11/12 06:24:41;;;;;;;23.42;17.15;;;;;;;5.08;100.00;100394.75;5065521;28;20467;-46
2023/11/12 06:27:10;;;;;;;24.90;16.17;;;;;;;5.04;100.00;100381.94;5061545;28;20055;-48
2023/11/12 06:29:38;;;;;;;20.77;15.98;;;;;;;5.02;100.00;100389.00;5064687;28;20049;-50
2023/11/12 06:32:07;;;;;;;21.20;16.38;;;;;;;4.99;100.00;100395.19;5052660;28;20392;-49
2023/11/12 06:34:35;;;;;;;24.95;16.23;;;;;;;4.96;100.00;100391.88;5049878;28;20417;-47
2023/11/12 06:37:04;;;;;;;23.15;16.05;;;;;;;4.93;100.00;100390.28;5051955;28;20536;-49
2023/11/12 06:39:33;;;;;;;20.48;14.95;;;;;;;4.87;100.00;100385.38;5049784;28;20052;-47
2023/11/12 06:42:02;;;;;;;23.60;15.75;;;;;;;4.84;100.00;100386.38;5087829;28;20072;-56
2023/11/12 06:44:30;;;;;;;21.38;14.80;;;;;;;4.79;100.00;100397.94;5063320;28;20048;-56
2023/11/12 06:46:58;;;;;;;21.08;14.80;;;;;;;4.74;100.00;100401.59;5053972;28;20094;-56
2023/11/12 06:49:26;;;;;;;22.38;14.50;;;;;;;4.71;100.00;100398.28;5063979;28;20570;-54
2023/11/12 06:51:55;;;;;;;20.33;14.05;;;;;;;4.64;100.00;100400.34;5053588;28;20041;-55
2023/11/12 06:54:23;;;;;;;22.52;14.82;;;;;;;4.61;100.00;100402.22;5063921;28;20037;-55
2023/11/12 06:56:53;;;;;;;19.83;13.95;;;;;;;4.54;100.00;100399.94;5052774;28;20047;-54
2023/11/12 06:59:22;;;;;;;20.98;15.05;;;;;;;4.52;100.00;100406.13;5053043;28;20064;-54
2023/11/12 07:01:50;;;;;;;20.25;14.07;;;;;;;4.48;100.00;100415.81;5061572;28;20043;-55
2023/11/12 07:04:20;;;;;;;19.33;14.68;;;;;;;4.44;100.00;100416.06;5061933;28;20158;-55
2023/11/12 07:06:48;;;;;;;22.30;14.23;;;;;;;4.40;100.00;100418.81;5067527;28;20053;-57
2023/11/12 07:09:36;;;;;;;21.92;15.73;;;;;;;4.33;100.00;100419.16;5066977;28;20669;-55
2023/11/12 07:12:07;;;;;;;23.27;16.25;;;;;;;4.32;100.00;100427.88;5070660;28;20562;-55
2023/11/12 07:14:35;;;;;;;21.23;15.57;;;;;;;4.23;100.00;100427.38;5071036;28;20055;-55
2023/11/12 07:17:04;;;;;;;24.52;16.00;;;;;;;4.21;100.00;100426.63;5069915;28;20066;-54
2023/11/12 07:19:32;;;;;;;23.15;16.02;;;;;;;4.20;100.00;100427.53;5072980;28;20407;-56
2023/11/12 07:22:00;;;;;;;25.02;16.65;;;;;;;4.21;100.00;100430.97;5073177;28;20121;-55
2023/11/12 07:24:28;;;;;;;20.90;15.60;;;;;;;4.17;100.00;100430.28;5069946;28;20534;-55
2023/11/12 07:26:57;;;;;;;25.70;15.48;;;;;;;4.16;100.00;100425.97;5068990;28;20489;-55
2023/11/12 07:29:26;;;;;;;24.88;17.15;;;;;;;4.16;100.00;100435.53;5072873;28;20059;-56
2023/11/12 07:31:55;;;;;;;22.10;16.05;;;;;;;4.15;100.00;100434.69;5073299;28;20052;-55
2023/11/12 07:34:25;;;;;;;23.17;16.73;;;;;;;4.16;100.00;100441.59;5073157;28;20456;-50
2023/11/12 07:36:53;;;;;;;23.63;16.80;;;;;;;4.17;100.00;100438.09;5070272;28;20040;-54
2023/11/12 07:39:21;;;;;;;25.00;16.35;;;;;;;4.18;100.00;100439.75;5070213;28;20047;-56
2023/11/12 07:41:49;;;;;;;24.77;16.20;;;;;;;4.21;100.00;100441.38;5070156;28;20643;-55
2023/11/12 07:44:17;;;;;;;23.40;16.50;;;;;;;4.25;100.00;100440.31;5069834;28;20072;-48
2023/11/12 07:46:47;;;;;;;24.75;16.60;;;;;;;4.27;100.00;100443.72;5069560;28;20067;-48
2023/11/12 07:49:15;;;;;;;24.95;16.70;;;;;;;4.32;100.00;100451.31;5068946;28;20052;-44
2023/11/12 07:51:48;;;;;;;26.40;17.08;;;;;;;4.38;100.00;100451.03;5072792;28;20044;-47
2023/11/12 07:54:16;;;;;;;23.85;16.88;;;;;;;4.42;100.00;100454.31;5072668;28;20032;-50
2023/11/12 07:56:45;;;;;;;25.65;16.52;;;;;;;4.46;100.00;100451.53;5070780;28;20048;-49
2023/11/12 07:59:13;;;;;;;24.30;16.45;;;;;;;4.54;100.00;100453.75;5069478;28;20103;-49
2023/11/12 08:01:41;;;;;;;24.60;16.77;;;;;;;4.61;100.00;100459.53;5072346;28;20044;-46
2023/11/12 08:04:11;;;;;;;25.20;16.60;;;;;;;4.63;100.00;100460.31;5071188;28;20415;-48
2023/11/12 08:06:40;;;;;;;24.50;16.17;;;;;;;4.66;100.00;100460.19;5069679;28;20048;-47
2023/11/12 08:09:08;;;;;;;27.63;16.80;;;;;;;4.73;100.00;100459.81;5070363;28;20056;-50
2023/11/12 08:11:40;;;;;;;27.73;17.00;;;;;;;4.80;100.00;100460.38;5057347;28;20052;-49
2023/11/12 08:14:09;;;;;;;27.42;17.05;;;;;;;4.84;100.00;100461.94;5056197;28;20045;-46
2023/11/12 08:16:38;;;;;;;25.27;16.55;;;;;;;4.86;100.00;100467.91;5061092;28;20040;-50
2023/11/12 08:19:06;;;;;;;24.55;16.60;;;;;;;4.89;100.00;100462.56;5053801;28;20051;-46
2023/11/12 08:21:36;;;;;;;25.83;16.88;;;;;;;4.96;100.00;100470.06;5056133;28;20037;-50
2023/11/12 08:24:05;;;;;;;25.25;16.63;;;;;;;5.01;100.00;100465.50;5065545;28;20562;-48
2023/11/12 08:26:38;;;;;;;28.90;17.38;;;;;;;5.05;100.00;100475.69;5056858;28;20848;-49
2023/11/12 08:29:10;;;;;;;25.98;16.23;;;;;;;5.08;100.00;100474.69;5060298;28;20044;-48
2023/11/12 08:31:38;;;;;;;25.90;16.67;;;;;;;5.15;100.00;100475.25;5052645;28;20053;-56
2023/11/12 08:34:09;;;;;;;25.77;17.65;;;;;;;5.21;100.00;100478.41;5058259;28;20036;-56
2023/11/12 08:36:39;;;;;;;24.58;16.15;;;;;;;5.21;100.00;100488.00;5053382;28;20056;-47
2023/11/12 08:39:09;;;;;;;25.50;16.25;;;;;;;5.23;100.00;100476.56;5064408;28;20040;-48
2023/11/12 08:41:37;;;;;;;26.33;16.23;;;;;;;5.25;100.00;100489.53;5059813;28;20836;-50
2023/11/12 08:44:07;;;;;;;23.83;16.52;;;;;;;5.30;100.00;100484.09;5050726;28;20045;-48
2023/11/12 08:46:35;;;;;;;21.95;15.15;;;;;;;5.34;100.00;100489.06;5057747;28;20063;-46
2023/11/12 08:49:04;;;;;;;24.85;16.42;;;;;;;5.40;100.00;100487.94;5057596;28;20072;-47
2023/11/12 08:51:33;;;;;;;24.40;16.83;;;;;;;5.35;100.00;100503.81;5048197;28;20040;-48
2023/11/12 08:54:02;;;;;;;30.77;18.42;;;;;;;5.37;100.00;100506.34;5063157;28;20043;-48
2023/11/12 08:56:31;;;;;;;26.27;16.52;;;;;;;5.45;100.00;100501.59;5064065;28;20041;-51
2023/11/12 08:59:00;;;;;;;26.85;16.73;;;;;;;5.50;100.00;100499.59;5060300;28;20098;-51
2023/11/12 09:01:34;;;;;;;31.10;17.60;;;;;;;5.56;100.00;100508.88;5058820;28;20041;-47
2023/11/12 09:04:02;;;;;;;25.90;16.40;;;;;;;5.64;100.00;100500.69;5057240;28;20045;-46
2023/11/12 09:06:30;;;;;;;26.55;17.30;;;;;;;5.68;100.00;100499.63;5051997;28;20565;-55
2023/11/12 09:09:04;;;;;;;24.70;16.80;;;;;;;5.66;100.00;100493.63;5059559;28;20032;-50
2023/11/12 09:11:32;;;;;;;23.77;15.93;;;;;;;5.72;100.00;100495.94;5059591;28;20400;-49
2023/11/12 09:14:03;;;;;;;22.67;15.32;;;;;;;5.80;100.00;100492.94;5049463;28;20430;-48
2023/11/12 09:16:35;;;;;;;23.35;15.70;;;;;;;5.83;100.00;100496.22;5054672;28;20049;-48
2023/11/12 09:19:05;;;;;;;23.63;15.90;;;;;;;5.88;100.00;100494.22;5054583;28;20048;-50
2023/11/12 09:21:33;;;;;;;21.55;15.07;;;;;;;5.96;100.00;100490.38;5064429;28;20071;-50
2023/11/12 09:24:03;;;;;;;26.17;15.98;;;;;;;6.03;100.00;100491.78;5057983;28;20066;-49
2023/11/12 09:26:32;;;;;;;22.92;14.93;;;;;;;6.11;100.00;100494.84;5057146;28;20041;-50
2023/11/12 09:29:00;;;;;;;22.52;13.82;;;;;;;6.16;100.00;100492.84;5058651;28;20041;-47
2023/11/12 09:31:28;;;;;;;21.65;13.27;;;;;;;6.20;100.00;100497.00;5060529;28;20049;-46
2023/11/12 09:33:57;;;;;;;23.85;14.25;;;;;;;6.25;100.00;100502.78;5066212;28;20484;-45
2023/11/12 09:36:25;;;;;;;21.80;14.02;;;;;;;6.27;100.00;100497.47;5069260;28;20040;-48
2023/11/12 09:38:56;;;;;;;20.67;13.45;;;;;;;6.30;100.00;100496.47;5069042;28;20036;-47
2023/11/12 09:41:26;;;;;;;20.27;13.98;;;;;;;6.29;100.00;100497.44;5068351;28;20061;-48
2023/11/12 09:43:58;;;;;;;21.30;13.23;;;;;;;6.31;100.00;100498.19;5068427;28;20064;-47
2023/11/12 09:46:26;;;;;;;21.55;13.50;;;;;;;6.34;100.00;100492.78;5055075;28;20073;-47
2023/11/12 09:48:57;;;;;;;18.60;13.05;;;;;;;6.38;100.00;100499.53;5052785;28;20048;-47
2023/11/12 09:51:26;;;;;;;21.90;13.65;;;;;;;6.43;100.00;100502.75;5060843;28;20053;-47
2023/11/12 09:53:55;;;;;;;18.30;13.18;;;;;;;6.49;100.00;100510.28;5065413;28;20053;-48
2023/11/12 09:56:25;;;;;;;19.85;13.25;;;;;;;6.48;100.00;100505.97;5061421;28;20166;-47
2023/11/12 09:58:54;;;;;;;22.08;13.02;;;;;;;6.47;100.00;100509.50;5062689;28;20048;-46
2023/11/12 10:01:24;;;;;;;21.75;14.20;;;;;;;6.48;100.00;100508.56;5062162;28;20098;-48
2023/11/12 10:03:52;;;;;;;19.30;14.18;;;;;;;6.55;100.00;100503.88;5055240;28;20138;-47
2023/11/12 10:06:22;;;;;;;20.83;14.50;;;;;;;6.60;100.00;100509.69;5051305;28;20358;-47
2023/11/12 10:08:51;;;;;;;19.52;14.02;;;;;;;6.62;100.00;100502.59;5054220;28;20499;-46
2023/11/12 10:11:21;;;;;;;22.83;14.95;;;;;;;6.66;100.00;100500.69;5050876;28;20534;-47
2023/11/12 10:13:54;;;;;;;16.75;12.80;;;;;;;6.60;100.00;100502.69;5055984;28;20119;-48
2023/11/12 10:16:29;;;;;;;17.00;12.73;;;;;;;6.74;100.00;100507.16;5060144;28;20066;-49
2023/11/12 10:19:11;;;;;;;22.98;14.23;;;;;;;6.86;100.00;100503.03;5054421;28;20545;-46
2023/11/12 10:21:56;;;;;;;18.52;14.20;;;;;;;7.05;100.00;100497.63;5052191;28;20053;-48
2023/11/12 10:24:27;;;;;;;20.52;14.10;;;;;;;7.22;100.00;100508.94;5050312;28;20052;-47
2023/11/12 10:26:58;;;;;;;22.45;14.00;;;;;;;7.57;100.00;100500.84;5051489;28;20049;-48
2023/11/12 10:29:28;;;;;;;21.75;13.10;;;;;;;7.78;100.00;100511.81;5060401;28;20059;-49
2023/11/12 10:31:57;;;;;;;20.08;11.90;;;;;;;7.99;100.00;100517.59;5056208;28;20064;-49
2023/11/12 10:34:27;;;;;;;22.45;13.15;;;;;;;8.35;100.00;100507.59;5053071;28;20091;-47
2023/11/12 10:37:03;;;;;;;16.05;11.00;;;;;;;8.76;100.00;100509.47;5064683;28;20513;-50
2023/11/12 10:39:40;;;;;;;16.73;11.60;;;;;;;9.03;100.00;100516.53;5070656;28;20056;-49
2023/11/12 10:42:20;;;;;;;18.70;10.73;;;;;;;8.94;100.00;100518.78;5070788;28;20051;-48
2023/11/12 10:44:56;;;;;;;16.98;10.75;;;;;;;9.05;100.00;100514.63;5055153;28;20530;-47
2023/11/12 10:47:27;;;;;;;16.73;10.75;;;;;;;9.16;100.00;100521.81;5055236;28;20051;-46
2023/11/12 10:49:56;;;;;;;15.77;9.73;;;;;;;9.26;100.00;100515.03;5052004;28;20088;-46
2023/11/12 10:52:24;;;;;;;18.48;11.30;;;;;;;9.35;100.00;100519.66;5050355;28;20060;-49
2023/11/12 10:54:58;;;;;;;16.98;10.13;;;;;;;9.39;100.00;100512.44;5057678;28;20040;-46
2023/11/12 10:57:26;;;;;;;13.40;9.82;;;;;;;9.30;100.00;100514.72;5066588;28;20106;-47
2023/11/12 10:59:57;;;;;;;15.30;10.23;;;;;;;9.32;100.00;100514.63;5064886;28;20045;-47
2023/11/12 11:02:29;;;;;;;16.52;10.02;;;;;;;9.27;100.00;100512.31;5051564;28;20124;-48
2023/11/12 11:05:02;;;;;;;13.98;10.27;;;;;;;9.32;100.00;100519.06;5048609;28;20041;-48
2023/11/12 11:07:30;;;;;;;14.45;9.45;;;;;;;9.34;100.00;100519.78;5050537;28;20502;-47
2023/11/12 11:09:58;;;;;;;15.80;9.30;;;;;;;9.30;100.00;100519.97;5051139;28;20057;-45
2023/11/12 11:12:27;;;;;;;14.73;9.63;;;;;;;9.20;100.00;100505.75;5069480;28;20048;-46
2023/11/12 11:15:35;;;;;;;9.95;5.75;;;;;;;9.24;100.00;100504.66;5072049;28;20389;-48
2023/11/12 11:18:04;;;;;;;9.43;5.07;;;;;;;9.25;100.00;100502.84;5063236;28;20063;-48
2023/11/12 11:21:05;;;;;;;10.93;5.95;;;;;;;9.29;100.00;100502.53;5069550;28;20553;-46
2023/11/12 11:23:40;;;;;;;13.68;6.53;;;;;;;9.39;100.00;100499.31;5070262;28;20114;-47